Burkett, TX

10:08 AM CST on December 27, 2014 (GMT -0600)
Abilene Regional | Change Station
CLOSE
Current Station
Airport
Location: Abilene,
Elevation: 1788 ft
Nearby Weather Stations

Elev 1788 ft 32.41 °N, 99.68 °W | Updated 16 minutes ago

Overcast
Overcast
33 °F
Feels Like 23 °F
N
15
Wind Variable Wind from North

Today
High -- | Low -- °F
--% Chance of Precip.
Yesterday
High -- | Low -- °F
Precip. -- in
7:36 AM 5:40 PM
Waxing Crescent, 37% visible
Pressure 30.31 in
Visibility 10.0 miles
Clouds Overcast 900 ft
Windchill 23 °F
Dew Point 32 °F
Humidity 96%
Rainfall 0.14 in
Snow Depth Not available.
UV 1 out of 12
Pollen 10.50 out of 12
Air Quality Not available.
Flu Activity Not available.
METAR KABI 271552Z COR 36013KT 10SM -RA OVC009 01/00 A3030 RMK AO2 RAE44UPB44 SLP263 P0003 T00060000

More Conditions Fewer Conditions

Pressure 30.31 in
Visibility 10.0 miles
Clouds Overcast 900 ft
Windchill 23 °F
Dew Point 32 °F
Humidity 96%
Rainfall 0.14 in
Snow Depth Not available.
UV 1 out of 12
Pollen 10.50 out of 12
Air Quality Not available.
Flu Activity Not available.
METAR KABI 271552Z COR 36013KT 10SM -RA OVC009 01/00 A3030 RMK AO2 RAE44UPB44 SLP263 P0003 T00060000

More Conditions Fewer Conditions

Nowcast | as of 8:25 am CST on December 27, 2014

Look for light rain showers to continue this morning across the Concho Valley and Heartland...mainly east of a line from Robert Lee to San Angelo. Rainfall amounts will be light...a few hundredths of an inch or less.

×

10-Day Weather Forecast

Almanac

Astronomy

Dec. 27, 2014 Rise Set
Actual Time
Civil Twilight
Nautical Twilight
Astronomical Twilight
Moon
Length of Visible Light
Length of Day
Tomorrow will be .
, % of the Moon is Illuminated

Today's Extremes

State Highs State Lows

Community

WunderPhotos

Upload Photos

1,780,942 photos uploaded!

WunderBlogs® & News

Nearby

Air Quality

  Air Quality AQ Index Pollutant
Not available.

Snow Depth

Station Depth Elevation

Earthquake Activity

City Distance Mag. Time & Date
Minimum magnitude displayed is 2.5.

Coastal Water Temperatures

Place Temperature

Nearby Weather Stations